Pasadena 2N

39° 08' 31"N, 76° 30' 27"W, Elevation 43 ft.
Eastern Time

Hourly observations for the last 72 hours

Date Time Temperature (°F) Humi-
dity

(%)
Wind
(mph)
Pressure Rain (in) Sun
(W/m2)
ET
(in)
Air Dew 6 Hour 1 Hr 3 Hr 6 Hr Day
Alt
(in)
Sea
Level

(mb)
Max Min
20 23:00 73.6 68.1 83 SE 2 G 7 30.09 1019.0 0.00 0 0.072
20 22:00 73.4 69.0 86 SE 2 G 7 30.09 1018.9 0.00 0 0.071
20 21:00 74.1 69.3 85 E 3 G 9 30.07 1018.4 0.00 0 0.070
20 20:00 74.3 69.2 80.1 74.3 84 ENE 2 G 10 30.06 1017.9 0.00 0 0.069
20 19:00 75.5 69.6 82 ENE 3 G 6 30.05 1017.6 0.00 26 0.068
20 18:00 76.5 70.2 81 ENE 2 G 4 30.05 1017.7 0.00 42 0.066
20 17:00 79.4 71.2 76 NE 4 G 8 30.06 1017.9 0.00 167 0.055
20 16:00 78.6 71.5 79 ESE 3 G 11 30.06 1017.8 0.00 628 0.042
20 15:00 76.9 69.9 79 ENE 4 G 8 30.08 1018.5 0.00 295 0.035
20 14:00 75.9 69.3 76.4 69.9 80 E 2 G 5 30.08 1018.8 0.00 118 0.028
20 13:00 76.2 69.2 79 ENE 4 G 9 30.08 1018.8 0.00 214 0.021
20 12:00 73.5 68.0 83 ENE 3 G 7 30.09 1018.9 0.00 257 0.016
20 11:00 73.1 67.6 83 NE 3 G 7 30.10 1019.2 0.00 113 0.011
20 10:00 71.3 66.6 85 ENE 3 G 5 30.11 1019.5 0.00 42 0.009
20 09:00 70.7 66.0 85 ENE 5 G 9 30.08 1018.6 0.00 69 0.007
20 08:00 70.0 65.6 70.2 69.5 86 E 2 G 6 30.07 1018.2 0.00 30 0.006
20 07:00 69.5 65.5 87 NE 1 G 9 30.05 1017.7 0.00 9 0.006
20 06:00 69.6 65.6 87 NNE 2 G 8 30.05 1017.6 0.00 0 0.005
20 05:00 69.9 65.9 87 ENE 2 G 5 30.05 1017.6 0.00 0 0.004
20 04:00 70.1 65.7 86 NNE 1 G 5 30.05 1017.5 0.00 0 0.003
20 03:00 69.9 65.9 87 NE 4 G 10 30.03 1017.1 0.00 0 0.002
20 02:00 70.2 66.2 73.3 70.2 87 E 3 G 8 30.03 1017.1 0.00 0 0.001
20 01:00 71.3 66.9 86 ENE 3 G 11 30.02 1016.7 0.00 0 0.000
20 00:00 71.7 67.3 86 ENE 2 G 7 30.03 1017.1 0.00 0 0.093
19 23:00 72.3 67.9 86 NE 2 G 10 30.03 1017.0 0.00 0 0.092
19 22:00 72.7 68.3 86 ENE 6 G 10 30.02 1016.7 0.00 0 0.091
19 21:00 73.1 68.7 86 ESE 3 G 9 30.00 1015.9 0.00 0 0.090
19 20:00 73.3 68.9 80.6 73.2 86 NNE 4 G 10 29.98 1015.2 0.00 0 0.089
19 19:00 73.7 69.3 86 ENE 4 G 12 29.96 1014.7 0.00 35 0.087
19 18:00 76.1 70.6 83 NE 5 G 12 29.96 1014.5 0.00 76 0.080
19 17:00 78.9 71.5 78 ENE 5 G 11 29.94 1013.9 0.00 167 0.068
19 16:00 79.8 71.6 76 ENE 5 G 9 29.93 1013.6 0.00 657 0.054
19 15:00 78.9 71.8 79 N 2 G 7 29.94 1013.8 0.00 425 0.039
19 14:00 77.6 70.9 77.7 72.9 80 ENE 2 G 7 29.94 1013.8 0.00 399 0.031
19 13:00 76.7 70.1 80 NE 3 G 6 29.93 1013.7 0.00 155 0.025
19 12:00 75.4 69.2 81 NE 2 G 4 29.93 1013.5 0.00 239 0.019
19 11:00 75.6 69.4 81 NE 2 G 4 29.92 1013.4 0.00 221 0.014
19 10:00 74.1 68.3 82 NE 2 G 6 29.92 1013.3 0.00 95 0.010
19 09:00 73.7 67.9 82 S 2 G 9 29.90 1012.5 0.00 113 0.007
19 08:00 73.1 67.6 75.0 72.6 83 W 2 G 8 29.88 1011.9 0.00 58 0.006
19 07:00 73.1 67.6 83 WNW 2 G 5 29.87 1011.6 0.00 0 0.006
19 06:00 73.1 67.6 83 WNW 2 G 5 29.84 1010.5 0.00 0 0.005
19 05:00 74.3 69.2 84 NNW 2 G 6 29.83 1010.0 0.00 0 0.004
19 04:00 74.8 69.6 84 NW 2 G 5 29.82 1010.0 0.00 0 0.003
19 03:00 74.9 70.1 85 N 1 G 6 29.81 1009.7 0.00 0 0.002
19 02:00 72.9 69.1 79.0 72.9 88 W 0 G 2 29.82 1009.7 0.00 0 0.001
19 01:00 73.3 69.5 88 W 2 G 7 29.81 1009.6 0.00 0 0.000
19 00:00 73.8 70.0 88 W 1 G 3 29.81 1009.6 0.01 0 0.114
18 23:00 75.2 71.4 88 W 0 G 1 29.82 1009.7 0.01 0 0.113
18 22:00 76.3 72.1 87 Calm 29.82 1009.9 0.01 0 0.112
18 21:00 77.3 72.1 84 Calm 29.81 1009.5 0.01 0 0.111
18 20:00 79.0 72.7 89.4 79.0 81 W 0 G 1 29.80 1009.2 0.01 0 0.110
18 19:00 82.8 72.9 72 W 2 G 6 29.79 1008.9 0.01 51 0.107
18 18:00 84.6 74.2 71 WNW 1 G 4 29.79 1008.7 0.01 142 0.102
18 17:00 85.6 73.4 67 WSW 4 G 11 29.78 1008.5 0.01 185 0.095
18 16:00 85.0 74.1 70 W 6 G 10 29.80 1009.0 0.01 185 0.088
18 15:00 86.5 74.7 68 W 2 G 8 29.81 1009.5 0.01 281 0.072
18 14:00 89.0 76.6 89.6 73.7 67 W 2 G 7 29.84 1010.4 0.01 425 0.054
18 13:00 88.4 74.7 64 SW 4 G 8 29.84 1010.7 0.01 385 0.034
18 12:00 85.9 75.4 71 SW 3 G 10 29.86 1011.3 0.01 471 0.019
18 11:00 83.5 73.9 73 W 4 G 10 29.88 1011.7 0.01 237 0.011
18 10:00 80.3 73.9 81 WSW 2 G 7 29.88 1012.0 0.01 246 0.005
18 09:00 77.1 72.2 85 WSW 1 G 6 29.90 1012.5 0.01 142 0.002
18 08:00 73.7 70.9 74.8 72.0 91 SW 1 G 4 29.90 1012.4 0.01 0.01 63 0.001
18 07:00 72.3 69.8 92 SSW 0 G 3 29.90 1012.7 0.01 12 0.001
18 06:00 72.3 70.2 93 Calm 29.89 1012.2 0.01 0 0.001
18 05:00 72.0 69.5 92 NW 0 G 1 29.89 1012.3 0.01 0.01 0 0.001
18 04:00 74.2 70.4 88 NW 1 G 4 29.90 1012.4 0.01 0.01 0 0.000
18 03:00 72.8 70.0 91 SSE 0 G 1 29.90 1012.5 0.00 0 0.000
18 02:00 73.3 70.5 83.7 73.3 91 Calm 29.92 1013.3 0.00 0 0.000
18 01:00 73.9 71.1 91 Calm 29.93 1013.6 0.00 0 0.000
18 00:00 74.5 71.4 90 Calm 29.93 1013.5 0.00 0 0.106

Data generated by WxSolution Version 1.9.1.5, Build 2018.05.20.